<?xml version="1.0" encoding="UTF-8" standalone="no" ?>
<gpx xmlns="http://www.topografix.com/GPX/1/1" xmlns:xsi="http://www.w3.org/2001/XMLSchema-instance" xsi:schemaLocation="http://www.topografix.com/GPX/1/1 http://www.topografix.com/GPX/1/1/gpx.xsd" version="1.1" creator="VisuGPX - https://www.visugpx.com">
  <metadata>
    <name>Base VRTT Gevaudan Lagogne</name>
  </metadata>
  <trk>
    <name><![CDATA[Sans titre]]></name>
    <extensions>
      <line xmlns="http://www.topografix.com/GPX/gpx_style/0/2">
        <color>316347</color>
        <width>4</width>
      </line>
    </extensions>
    <trkseg>
      <trkpt lat="44.736" lon="3.83474">
        <ele>947.19976806641</ele>
        <time>2020-10-16T07:40:44.000Z</time>
      </trkpt>
      <trkpt lat="44.73544" lon="3.83477">
        <ele>943.64471435547</ele>
        <time>2020-10-16T07:40:44.011Z</time>
      </trkpt>
      <trkpt lat="44.73489" lon="3.8351">
        <ele>945.82879638672</ele>
        <time>2020-10-16T07:40:44.034Z</time>
      </trkpt>
      <trkpt lat="44.73422" lon="3.83537">
        <ele>947.42388916016</ele>
        <time>2020-10-16T07:40:44.071Z</time>
      </trkpt>
      <trkpt lat="44.73262" lon="3.83598">
        <ele>950.76513671875</ele>
        <time>2020-10-16T07:40:44.141Z</time>
      </trkpt>
      <trkpt lat="44.73239" lon="3.83603">
        <ele>951.88500976562</ele>
        <time>2020-10-16T07:40:44.216Z</time>
      </trkpt>
      <trkpt lat="44.72681" lon="3.83744">
        <ele>958.40368652344</ele>
        <time>2020-10-16T07:40:44.404Z</time>
      </trkpt>
      <trkpt lat="44.72614" lon="3.83786">
        <ele>956.68804931641</ele>
        <time>2020-10-16T07:40:44.607Z</time>
      </trkpt>
      <trkpt lat="44.72495" lon="3.83919">
        <ele>961.23541259766</ele>
        <time>2020-10-16T07:40:44.841Z</time>
      </trkpt>
      <trkpt lat="44.72495" lon="3.83919">
        <ele>961.23583984375</ele>
        <time>2020-10-16T07:40:45.075Z</time>
      </trkpt>
      <trkpt lat="44.72475" lon="3.83954">
        <ele>962.38641357422</ele>
        <time>2020-10-16T07:40:45.315Z</time>
      </trkpt>
      <trkpt lat="44.72444" lon="3.84009">
        <ele>962.55505371094</ele>
        <time>2020-10-16T07:40:45.565Z</time>
      </trkpt>
      <trkpt lat="44.72441" lon="3.84016">
        <ele>962.76574707031</ele>
        <time>2020-10-16T07:40:45.816Z</time>
      </trkpt>
      <trkpt lat="44.72441" lon="3.84016">
        <ele>962.76629638672</ele>
        <time>2020-10-16T07:40:46.067Z</time>
      </trkpt>
      <trkpt lat="44.72422" lon="3.84067">
        <ele>962.46917724609</ele>
        <time>2020-10-16T07:40:46.326Z</time>
      </trkpt>
      <trkpt lat="44.7234" lon="3.84175">
        <ele>965.65618896484</ele>
        <time>2020-10-16T07:40:46.608Z</time>
      </trkpt>
      <trkpt lat="44.72302" lon="3.84099">
        <ele>967.01336669922</ele>
        <time>2020-10-16T07:40:46.903Z</time>
      </trkpt>
      <trkpt lat="44.72282" lon="3.84075">
        <ele>967.20220947266</ele>
        <time>2020-10-16T07:40:47.203Z</time>
      </trkpt>
      <trkpt lat="44.72232" lon="3.84044">
        <ele>969.10736083984</ele>
        <time>2020-10-16T07:40:47.514Z</time>
      </trkpt>
      <trkpt lat="44.72021" lon="3.83856">
        <ele>977.35284423828</ele>
        <time>2020-10-16T07:40:47.875Z</time>
      </trkpt>
      <trkpt lat="44.71948" lon="3.8376">
        <ele>978.54791259766</ele>
        <time>2020-10-16T07:40:48.256Z</time>
      </trkpt>
      <trkpt lat="44.71706" lon="3.83489">
        <ele>979.70709228516</ele>
        <time>2020-10-16T07:40:48.699Z</time>
      </trkpt>
      <trkpt lat="44.71666" lon="3.83469">
        <ele>982.08270263672</ele>
        <time>2020-10-16T07:40:49.151Z</time>
      </trkpt>
      <trkpt lat="44.71664" lon="3.83477">
        <ele>981.98907470703</ele>
        <time>2020-10-16T07:40:49.604Z</time>
      </trkpt>
      <trkpt lat="44.71651" lon="3.83466">
        <ele>982.86358642578</ele>
        <time>2020-10-16T07:40:50.060Z</time>
      </trkpt>
      <trkpt lat="44.71639" lon="3.83456">
        <ele>983.69561767578</ele>
        <time>2020-10-16T07:40:50.519Z</time>
      </trkpt>
      <trkpt lat="44.71627" lon="3.83437">
        <ele>984.72869873047</ele>
        <time>2020-10-16T07:40:50.981Z</time>
      </trkpt>
      <trkpt lat="44.71623" lon="3.83427">
        <ele>985.16131591797</ele>
        <time>2020-10-16T07:40:51.445Z</time>
      </trkpt>
      <trkpt lat="44.71616" lon="3.83412">
        <ele>985.71453857422</ele>
        <time>2020-10-16T07:40:51.912Z</time>
      </trkpt>
      <trkpt lat="44.71606" lon="3.83393">
        <ele>986.28234863281</ele>
        <time>2020-10-16T07:40:52.382Z</time>
      </trkpt>
      <trkpt lat="44.71599" lon="3.83381">
        <ele>986.63922119141</ele>
        <time>2020-10-16T07:40:52.854Z</time>
      </trkpt>
      <trkpt lat="44.7159" lon="3.83367">
        <ele>987.08642578125</ele>
        <time>2020-10-16T07:40:53.329Z</time>
      </trkpt>
      <trkpt lat="44.7158" lon="3.83353">
        <ele>987.61779785156</ele>
        <time>2020-10-16T07:40:53.807Z</time>
      </trkpt>
      <trkpt lat="44.71572" lon="3.83337">
        <ele>988.48883056641</ele>
        <time>2020-10-16T07:40:54.288Z</time>
      </trkpt>
      <trkpt lat="44.71562" lon="3.8332">
        <ele>989.41607666016</ele>
        <time>2020-10-16T07:40:54.772Z</time>
      </trkpt>
      <trkpt lat="44.7155" lon="3.83298">
        <ele>990.61358642578</ele>
        <time>2020-10-16T07:40:55.260Z</time>
      </trkpt>
      <trkpt lat="44.71539" lon="3.83274">
        <ele>991.87292480469</ele>
        <time>2020-10-16T07:40:55.752Z</time>
      </trkpt>
      <trkpt lat="44.71531" lon="3.83255">
        <ele>992.13391113281</ele>
        <time>2020-10-16T07:40:56.247Z</time>
      </trkpt>
      <trkpt lat="44.71522" lon="3.83233">
        <ele>992.29461669922</ele>
        <time>2020-10-16T07:40:56.745Z</time>
      </trkpt>
      <trkpt lat="44.71512" lon="3.8321">
        <ele>992.45782470703</ele>
        <time>2020-10-16T07:40:57.247Z</time>
      </trkpt>
      <trkpt lat="44.71505" lon="3.83195">
        <ele>992.53857421875</ele>
        <time>2020-10-16T07:40:57.752Z</time>
      </trkpt>
      <trkpt lat="44.71496" lon="3.83175">
        <ele>993.02319335938</ele>
        <time>2020-10-16T07:40:58.260Z</time>
      </trkpt>
      <trkpt lat="44.71484" lon="3.83142">
        <ele>994.07061767578</ele>
        <time>2020-10-16T07:40:58.773Z</time>
      </trkpt>
      <trkpt lat="44.71476" lon="3.83124">
        <ele>994.51458740234</ele>
        <time>2020-10-16T07:40:59.290Z</time>
      </trkpt>
      <trkpt lat="44.71464" lon="3.83096">
        <ele>994.87927246094</ele>
        <time>2020-10-16T07:40:59.811Z</time>
      </trkpt>
      <trkpt lat="44.71451" lon="3.83071">
        <ele>995.08557128906</ele>
        <time>2020-10-16T07:41:00.337Z</time>
      </trkpt>
      <trkpt lat="44.71435" lon="3.8304">
        <ele>995.66961669922</ele>
        <time>2020-10-16T07:41:00.868Z</time>
      </trkpt>
      <trkpt lat="44.71424" lon="3.83027">
        <ele>996.08392333984</ele>
        <time>2020-10-16T07:41:01.402Z</time>
      </trkpt>
      <trkpt lat="44.71415" lon="3.83018">
        <ele>996.43890380859</ele>
        <time>2020-10-16T07:41:01.938Z</time>
      </trkpt>
      <trkpt lat="44.71415" lon="3.83018">
        <ele>996.4482421875</ele>
        <time>2020-10-16T07:41:02.474Z</time>
      </trkpt>
      <trkpt lat="44.71406" lon="3.83011">
        <ele>996.85681152344</ele>
        <time>2020-10-16T07:41:03.012Z</time>
      </trkpt>
      <trkpt lat="44.71392" lon="3.83">
        <ele>997.46893310547</ele>
        <time>2020-10-16T07:41:03.553Z</time>
      </trkpt>
      <trkpt lat="44.71371" lon="3.82982">
        <ele>998.44830322266</ele>
        <time>2020-10-16T07:41:04.099Z</time>
      </trkpt>
      <trkpt lat="44.7135" lon="3.82956">
        <ele>999.04144287109</ele>
        <time>2020-10-16T07:41:04.651Z</time>
      </trkpt>
      <trkpt lat="44.71333" lon="3.82941">
        <ele>999.42150878906</ele>
        <time>2020-10-16T07:41:05.207Z</time>
      </trkpt>
      <trkpt lat="44.71328" lon="3.82935">
        <ele>999.66796875</ele>
        <time>2020-10-16T07:41:05.764Z</time>
      </trkpt>
      <trkpt lat="44.7133" lon="3.82925">
        <ele>999.99792480469</ele>
        <time>2020-10-16T07:41:06.323Z</time>
      </trkpt>
      <trkpt lat="44.71335" lon="3.82905">
        <ele>1000.639831543</ele>
        <time>2020-10-16T07:41:06.885Z</time>
      </trkpt>
      <trkpt lat="44.71343" lon="3.82877">
        <ele>1001.557800293</ele>
        <time>2020-10-16T07:41:07.451Z</time>
      </trkpt>
      <trkpt lat="44.71349" lon="3.82854">
        <ele>1002.3257446289</ele>
        <time>2020-10-16T07:41:08.021Z</time>
      </trkpt>
      <trkpt lat="44.71355" lon="3.82835">
        <ele>1002.8420410156</ele>
        <time>2020-10-16T07:41:08.594Z</time>
      </trkpt>
      <trkpt lat="44.71361" lon="3.82812">
        <ele>1003.2619628906</ele>
        <time>2020-10-16T07:41:09.170Z</time>
      </trkpt>
      <trkpt lat="44.7137" lon="3.82778">
        <ele>1003.8545532227</ele>
        <time>2020-10-16T07:41:09.751Z</time>
      </trkpt>
      <trkpt lat="44.71374" lon="3.82757">
        <ele>1003.6852416992</ele>
        <time>2020-10-16T07:41:10.335Z</time>
      </trkpt>
      <trkpt lat="44.7138" lon="3.82727">
        <ele>1003.0916137695</ele>
        <time>2020-10-16T07:41:10.924Z</time>
      </trkpt>
      <trkpt lat="44.71379" lon="3.82712">
        <ele>1003.1727905273</ele>
        <time>2020-10-16T07:41:11.515Z</time>
      </trkpt>
      <trkpt lat="44.71378" lon="3.82705">
        <ele>1003.3044433594</ele>
        <time>2020-10-16T07:41:12.107Z</time>
      </trkpt>
      <trkpt lat="44.71376" lon="3.82702">
        <ele>1003.439453125</ele>
        <time>2020-10-16T07:41:12.699Z</time>
      </trkpt>
      <trkpt lat="44.71379" lon="3.82692">
        <ele>1003.2447509766</ele>
        <time>2020-10-16T07:41:13.293Z</time>
      </trkpt>
      <trkpt lat="44.71381" lon="3.82678">
        <ele>1003.134765625</ele>
        <time>2020-10-16T07:41:13.889Z</time>
      </trkpt>
      <trkpt lat="44.71381" lon="3.82657">
        <ele>1003.1013793945</ele>
        <time>2020-10-16T07:41:14.488Z</time>
      </trkpt>
      <trkpt lat="44.71379" lon="3.82638">
        <ele>1003.2496948242</ele>
        <time>2020-10-16T07:41:15.090Z</time>
      </trkpt>
      <trkpt lat="44.71378" lon="3.82608">
        <ele>1003.5548095703</ele>
        <time>2020-10-16T07:41:15.696Z</time>
      </trkpt>
      <trkpt lat="44.71377" lon="3.82575">
        <ele>1004.0657348633</ele>
        <time>2020-10-16T07:41:16.307Z</time>
      </trkpt>
      <trkpt lat="44.71377" lon="3.8256">
        <ele>1004.2329711914</ele>
        <time>2020-10-16T07:41:16.920Z</time>
      </trkpt>
      <trkpt lat="44.71387" lon="3.82556">
        <ele>1003.8016357422</ele>
        <time>2020-10-16T07:41:17.535Z</time>
      </trkpt>
      <trkpt lat="44.71394" lon="3.82553">
        <ele>1003.4848632812</ele>
        <time>2020-10-16T07:41:18.151Z</time>
      </trkpt>
      <trkpt lat="44.71399" lon="3.82549">
        <ele>1003.3668823242</ele>
        <time>2020-10-16T07:41:18.768Z</time>
      </trkpt>
      <trkpt lat="44.71402" lon="3.82537">
        <ele>1004.1256713867</ele>
        <time>2020-10-16T07:41:19.387Z</time>
      </trkpt>
      <trkpt lat="44.71405" lon="3.82526">
        <ele>1004.7645874023</ele>
        <time>2020-10-16T07:41:20.008Z</time>
      </trkpt>
      <trkpt lat="44.7141" lon="3.82509">
        <ele>1005.3207397461</ele>
        <time>2020-10-16T07:41:20.632Z</time>
      </trkpt>
      <trkpt lat="44.71421" lon="3.82494">
        <ele>1005.6695556641</ele>
        <time>2020-10-16T07:41:21.259Z</time>
      </trkpt>
      <trkpt lat="44.71436" lon="3.82492">
        <ele>1005.8698120117</ele>
        <time>2020-10-16T07:41:21.889Z</time>
      </trkpt>
      <trkpt lat="44.71448" lon="3.82493">
        <ele>1005.9795532227</ele>
        <time>2020-10-16T07:41:22.521Z</time>
      </trkpt>
      <trkpt lat="44.71462" lon="3.82495">
        <ele>1005.9707641602</ele>
        <time>2020-10-16T07:41:23.156Z</time>
      </trkpt>
      <trkpt lat="44.71483" lon="3.82502">
        <ele>1005.7313232422</ele>
        <time>2020-10-16T07:41:23.795Z</time>
      </trkpt>
      <trkpt lat="44.71508" lon="3.82505">
        <ele>1005.6218261719</ele>
        <time>2020-10-16T07:41:24.439Z</time>
      </trkpt>
      <trkpt lat="44.71529" lon="3.82507">
        <ele>1005.5505371094</ele>
        <time>2020-10-16T07:41:25.088Z</time>
      </trkpt>
      <trkpt lat="44.71554" lon="3.82504">
        <ele>1005.8579101562</ele>
        <time>2020-10-16T07:41:25.741Z</time>
      </trkpt>
      <trkpt lat="44.7157" lon="3.825">
        <ele>1006.1910400391</ele>
        <time>2020-10-16T07:41:26.398Z</time>
      </trkpt>
      <trkpt lat="44.71605" lon="3.82492">
        <ele>1007.2310791016</ele>
        <time>2020-10-16T07:41:27.062Z</time>
      </trkpt>
      <trkpt lat="44.7163" lon="3.82486">
        <ele>1007.9078369141</ele>
        <time>2020-10-16T07:41:27.731Z</time>
      </trkpt>
      <trkpt lat="44.71639" lon="3.82484">
        <ele>1007.8602905273</ele>
        <time>2020-10-16T07:41:28.402Z</time>
      </trkpt>
      <trkpt lat="44.7165" lon="3.82478">
        <ele>1007.9414672852</ele>
        <time>2020-10-16T07:41:29.075Z</time>
      </trkpt>
      <trkpt lat="44.71666" lon="3.82477">
        <ele>1007.6044311523</ele>
        <time>2020-10-16T07:41:29.751Z</time>
      </trkpt>
      <trkpt lat="44.71679" lon="3.82485">
        <ele>1006.8508300781</ele>
        <time>2020-10-16T07:41:30.430Z</time>
      </trkpt>
      <trkpt lat="44.7169" lon="3.82496">
        <ele>1005.8930053711</ele>
        <time>2020-10-16T07:41:31.112Z</time>
      </trkpt>
      <trkpt lat="44.71698" lon="3.82505">
        <ele>1005.1979980469</ele>
        <time>2020-10-16T07:41:31.796Z</time>
      </trkpt>
      <trkpt lat="44.71705" lon="3.82505">
        <ele>1005.0121459961</ele>
        <time>2020-10-16T07:41:32.481Z</time>
      </trkpt>
      <trkpt lat="44.71716" lon="3.82506">
        <ele>1004.8018188477</ele>
        <time>2020-10-16T07:41:33.169Z</time>
      </trkpt>
      <trkpt lat="44.71725" lon="3.82504">
        <ele>1004.8145141602</ele>
        <time>2020-10-16T07:41:33.858Z</time>
      </trkpt>
      <trkpt lat="44.71744" lon="3.82497">
        <ele>1005.0524291992</ele>
        <time>2020-10-16T07:41:34.551Z</time>
      </trkpt>
      <trkpt lat="44.71755" lon="3.82488">
        <ele>1005.396484375</ele>
        <time>2020-10-16T07:41:35.247Z</time>
      </trkpt>
      <trkpt lat="44.71767" lon="3.82477">
        <ele>1005.3586425781</ele>
        <time>2020-10-16T07:41:35.946Z</time>
      </trkpt>
      <trkpt lat="44.7178" lon="3.82464">
        <ele>1005.3336791992</ele>
        <time>2020-10-16T07:41:36.648Z</time>
      </trkpt>
      <trkpt lat="44.71791" lon="3.82456">
        <ele>1005.0965576172</ele>
        <time>2020-10-16T07:41:37.352Z</time>
      </trkpt>
      <trkpt lat="44.71817" lon="3.82439">
        <ele>1004.9449462891</ele>
        <time>2020-10-16T07:41:38.062Z</time>
      </trkpt>
      <trkpt lat="44.71832" lon="3.82425">
        <ele>1005.5153198242</ele>
        <time>2020-10-16T07:41:38.776Z</time>
      </trkpt>
      <trkpt lat="44.71846" lon="3.82418">
        <ele>1005.5972900391</ele>
        <time>2020-10-16T07:41:39.493Z</time>
      </trkpt>
      <trkpt lat="44.71864" lon="3.82408">
        <ele>1004.9396362305</ele>
        <time>2020-10-16T07:41:40.214Z</time>
      </trkpt>
      <trkpt lat="44.71876" lon="3.82401">
        <ele>1004.2416381836</ele>
        <time>2020-10-16T07:41:40.937Z</time>
      </trkpt>
      <trkpt lat="44.71897" lon="3.82393">
        <ele>1002.3317871094</ele>
        <time>2020-10-16T07:41:41.664Z</time>
      </trkpt>
      <trkpt lat="44.71909" lon="3.8239">
        <ele>1001.1626586914</ele>
        <time>2020-10-16T07:41:42.394Z</time>
      </trkpt>
      <trkpt lat="44.71925" lon="3.82385">
        <ele>999.34655761719</ele>
        <time>2020-10-16T07:41:43.127Z</time>
      </trkpt>
      <trkpt lat="44.71961" lon="3.82364">
        <ele>995.92663574219</ele>
        <time>2020-10-16T07:41:43.868Z</time>
      </trkpt>
      <trkpt lat="44.71968" lon="3.82359">
        <ele>995.46118164062</ele>
        <time>2020-10-16T07:41:44.611Z</time>
      </trkpt>
      <trkpt lat="44.71974" lon="3.82352">
        <ele>995.34991455078</ele>
        <time>2020-10-16T07:41:45.355Z</time>
      </trkpt>
      <trkpt lat="44.71983" lon="3.8234">
        <ele>995.53271484375</ele>
        <time>2020-10-16T07:41:46.102Z</time>
      </trkpt>
      <trkpt lat="44.71998" lon="3.82317">
        <ele>995.95629882812</ele>
        <time>2020-10-16T07:41:46.853Z</time>
      </trkpt>
      <trkpt lat="44.72012" lon="3.82304">
        <ele>995.14709472656</ele>
        <time>2020-10-16T07:41:47.607Z</time>
      </trkpt>
      <trkpt lat="44.72019" lon="3.823">
        <ele>994.54071044922</ele>
        <time>2020-10-16T07:41:48.363Z</time>
      </trkpt>
      <trkpt lat="44.72023" lon="3.823">
        <ele>994.04016113281</ele>
        <time>2020-10-16T07:41:49.120Z</time>
      </trkpt>
      <trkpt lat="44.72028" lon="3.82302">
        <ele>993.3310546875</ele>
        <time>2020-10-16T07:41:49.878Z</time>
      </trkpt>
      <trkpt lat="44.72032" lon="3.82305">
        <ele>992.60198974609</ele>
        <time>2020-10-16T07:41:50.637Z</time>
      </trkpt>
      <trkpt lat="44.72036" lon="3.82312">
        <ele>991.70336914062</ele>
        <time>2020-10-16T07:41:51.397Z</time>
      </trkpt>
      <trkpt lat="44.72039" lon="3.82319">
        <ele>991.07305908203</ele>
        <time>2020-10-16T07:41:52.158Z</time>
      </trkpt>
      <trkpt lat="44.72042" lon="3.82334">
        <ele>990.05383300781</ele>
        <time>2020-10-16T07:41:52.921Z</time>
      </trkpt>
      <trkpt lat="44.72044" lon="3.82346">
        <ele>989.23327636719</ele>
        <time>2020-10-16T07:41:53.686Z</time>
      </trkpt>
      <trkpt lat="44.72047" lon="3.82354">
        <ele>988.60003662109</ele>
        <time>2020-10-16T07:41:54.452Z</time>
      </trkpt>
      <trkpt lat="44.72051" lon="3.82362">
        <ele>987.93560791016</ele>
        <time>2020-10-16T07:41:55.220Z</time>
      </trkpt>
      <trkpt lat="44.7207" lon="3.82381">
        <ele>985.85089111328</ele>
        <time>2020-10-16T07:41:55.992Z</time>
      </trkpt>
      <trkpt lat="44.72077" lon="3.8239">
        <ele>984.97570800781</ele>
        <time>2020-10-16T07:41:56.766Z</time>
      </trkpt>
      <trkpt lat="44.72087" lon="3.82407">
        <ele>983.56323242188</ele>
        <time>2020-10-16T07:41:57.543Z</time>
      </trkpt>
      <trkpt lat="44.72096" lon="3.82427">
        <ele>982.06207275391</ele>
        <time>2020-10-16T07:41:58.324Z</time>
      </trkpt>
      <trkpt lat="44.72101" lon="3.82434">
        <ele>981.41552734375</ele>
        <time>2020-10-16T07:41:59.106Z</time>
      </trkpt>
      <trkpt lat="44.72106" lon="3.82438">
        <ele>980.88555908203</ele>
        <time>2020-10-16T07:41:59.889Z</time>
      </trkpt>
      <trkpt lat="44.72112" lon="3.8244">
        <ele>980.43719482422</ele>
        <time>2020-10-16T07:42:00.674Z</time>
      </trkpt>
      <trkpt lat="44.72118" lon="3.82441">
        <ele>980.03564453125</ele>
        <time>2020-10-16T07:42:01.460Z</time>
      </trkpt>
      <trkpt lat="44.72138" lon="3.82441">
        <ele>979.29797363281</ele>
        <time>2020-10-16T07:42:02.250Z</time>
      </trkpt>
      <trkpt lat="44.72163" lon="3.82445">
        <ele>978.30902099609</ele>
        <time>2020-10-16T07:42:03.045Z</time>
      </trkpt>
      <trkpt lat="44.72175" lon="3.82447">
        <ele>977.84320068359</ele>
        <time>2020-10-16T07:42:03.842Z</time>
      </trkpt>
      <trkpt lat="44.72193" lon="3.82448">
        <ele>977.20422363281</ele>
        <time>2020-10-16T07:42:04.643Z</time>
      </trkpt>
      <trkpt lat="44.72206" lon="3.82448">
        <ele>976.94195556641</ele>
        <time>2020-10-16T07:42:05.447Z</time>
      </trkpt>
      <trkpt lat="44.72226" lon="3.82446">
        <ele>976.17755126953</ele>
        <time>2020-10-16T07:42:06.254Z</time>
      </trkpt>
      <trkpt lat="44.72246" lon="3.82442">
        <ele>975.26043701172</ele>
        <time>2020-10-16T07:42:07.065Z</time>
      </trkpt>
      <trkpt lat="44.72284" lon="3.82438">
        <ele>973.26354980469</ele>
        <time>2020-10-16T07:42:07.884Z</time>
      </trkpt>
      <trkpt lat="44.72323" lon="3.8243">
        <ele>973.74652099609</ele>
        <time>2020-10-16T07:42:08.711Z</time>
      </trkpt>
      <trkpt lat="44.72354" lon="3.82423">
        <ele>974.34106445312</ele>
        <time>2020-10-16T07:42:09.544Z</time>
      </trkpt>
      <trkpt lat="44.7236" lon="3.82422">
        <ele>973.86059570312</ele>
        <time>2020-10-16T07:42:10.379Z</time>
      </trkpt>
      <trkpt lat="44.72366" lon="3.82423">
        <ele>973.33294677734</ele>
        <time>2020-10-16T07:42:11.215Z</time>
      </trkpt>
      <trkpt lat="44.72373" lon="3.82425">
        <ele>972.66278076172</ele>
        <time>2020-10-16T07:42:12.052Z</time>
      </trkpt>
      <trkpt lat="44.72397" lon="3.82435">
        <ele>969.79943847656</ele>
        <time>2020-10-16T07:42:12.894Z</time>
      </trkpt>
      <trkpt lat="44.72402" lon="3.82436">
        <ele>969.16589355469</ele>
        <time>2020-10-16T07:42:13.737Z</time>
      </trkpt>
      <trkpt lat="44.72407" lon="3.82435">
        <ele>968.65081787109</ele>
        <time>2020-10-16T07:42:14.581Z</time>
      </trkpt>
      <trkpt lat="44.7241" lon="3.82432">
        <ele>968.28784179688</ele>
        <time>2020-10-16T07:42:15.426Z</time>
      </trkpt>
      <trkpt lat="44.72412" lon="3.82427">
        <ele>967.97473144531</ele>
        <time>2020-10-16T07:42:16.272Z</time>
      </trkpt>
      <trkpt lat="44.72416" lon="3.82416">
        <ele>967.50207519531</ele>
        <time>2020-10-16T07:42:17.120Z</time>
      </trkpt>
      <trkpt lat="44.7242" lon="3.82406">
        <ele>967.09875488281</ele>
        <time>2020-10-16T07:42:17.969Z</time>
      </trkpt>
      <trkpt lat="44.72423" lon="3.82399">
        <ele>966.68096923828</ele>
        <time>2020-10-16T07:42:18.819Z</time>
      </trkpt>
      <trkpt lat="44.72427" lon="3.82395">
        <ele>966.17944335938</ele>
        <time>2020-10-16T07:42:19.670Z</time>
      </trkpt>
      <trkpt lat="44.72434" lon="3.82392">
        <ele>965.37066650391</ele>
        <time>2020-10-16T07:42:20.523Z</time>
      </trkpt>
      <trkpt lat="44.72447" lon="3.82388">
        <ele>963.78942871094</ele>
        <time>2020-10-16T07:42:21.378Z</time>
      </trkpt>
      <trkpt lat="44.72454" lon="3.82384">
        <ele>962.99188232422</ele>
        <time>2020-10-16T07:42:22.235Z</time>
      </trkpt>
      <trkpt lat="44.72461" lon="3.82377">
        <ele>962.66015625</ele>
        <time>2020-10-16T07:42:23.094Z</time>
      </trkpt>
      <trkpt lat="44.72468" lon="3.82368">
        <ele>962.27392578125</ele>
        <time>2020-10-16T07:42:23.955Z</time>
      </trkpt>
      <trkpt lat="44.72475" lon="3.82364">
        <ele>961.71527099609</ele>
        <time>2020-10-16T07:42:24.817Z</time>
      </trkpt>
      <trkpt lat="44.72482" lon="3.82363">
        <ele>961.11285400391</ele>
        <time>2020-10-16T07:42:25.681Z</time>
      </trkpt>
      <trkpt lat="44.72491" lon="3.82363">
        <ele>960.49365234375</ele>
        <time>2020-10-16T07:42:26.546Z</time>
      </trkpt>
      <trkpt lat="44.72505" lon="3.82365">
        <ele>959.5849609375</ele>
        <time>2020-10-16T07:42:27.414Z</time>
      </trkpt>
      <trkpt lat="44.72508" lon="3.82367">
        <ele>959.35382080078</ele>
        <time>2020-10-16T07:42:28.283Z</time>
      </trkpt>
      <trkpt lat="44.72513" lon="3.82369">
        <ele>959.08990478516</ele>
        <time>2020-10-16T07:42:29.153Z</time>
      </trkpt>
      <trkpt lat="44.72516" lon="3.82371">
        <ele>958.91094970703</ele>
        <time>2020-10-16T07:42:30.023Z</time>
      </trkpt>
      <trkpt lat="44.7252" lon="3.82371">
        <ele>958.64031982422</ele>
        <time>2020-10-16T07:42:30.894Z</time>
      </trkpt>
      <trkpt lat="44.72522" lon="3.82369">
        <ele>958.41424560547</ele>
        <time>2020-10-16T07:42:31.766Z</time>
      </trkpt>
      <trkpt lat="44.72529" lon="3.82374">
        <ele>958.04364013672</ele>
        <time>2020-10-16T07:42:32.639Z</time>
      </trkpt>
      <trkpt lat="44.72532" lon="3.82374">
        <ele>957.82403564453</ele>
        <time>2020-10-16T07:42:33.513Z</time>
      </trkpt>
      <trkpt lat="44.72548" lon="3.8236">
        <ele>956.98272705078</ele>
        <time>2020-10-16T07:42:34.391Z</time>
      </trkpt>
      <trkpt lat="44.72565" lon="3.82344">
        <ele>956.80230712891</ele>
        <time>2020-10-16T07:42:35.273Z</time>
      </trkpt>
      <trkpt lat="44.72577" lon="3.82334">
        <ele>956.77935791016</ele>
        <time>2020-10-16T07:42:36.158Z</time>
      </trkpt>
      <trkpt lat="44.72597" lon="3.82318">
        <ele>956.08471679688</ele>
        <time>2020-10-16T07:42:37.047Z</time>
      </trkpt>
      <trkpt lat="44.7261" lon="3.82307">
        <ele>954.87957763672</ele>
        <time>2020-10-16T07:42:37.939Z</time>
      </trkpt>
      <trkpt lat="44.72623" lon="3.82313">
        <ele>954.22790527344</ele>
        <time>2020-10-16T07:42:38.834Z</time>
      </trkpt>
      <trkpt lat="44.72643" lon="3.82319">
        <ele>951.98956298828</ele>
        <time>2020-10-16T07:42:39.733Z</time>
      </trkpt>
      <trkpt lat="44.72656" lon="3.82323">
        <ele>950.54791259766</ele>
        <time>2020-10-16T07:42:40.635Z</time>
      </trkpt>
      <trkpt lat="44.72674" lon="3.82325">
        <ele>948.50817871094</ele>
        <time>2020-10-16T07:42:41.540Z</time>
      </trkpt>
      <trkpt lat="44.727" lon="3.8233">
        <ele>945.82373046875</ele>
        <time>2020-10-16T07:42:42.450Z</time>
      </trkpt>
      <trkpt lat="44.72713" lon="3.82334">
        <ele>945.14697265625</ele>
        <time>2020-10-16T07:42:43.363Z</time>
      </trkpt>
      <trkpt lat="44.72732" lon="3.82352">
        <ele>944.91461181641</ele>
        <time>2020-10-16T07:42:44.281Z</time>
      </trkpt>
      <trkpt lat="44.72748" lon="3.82362">
        <ele>944.70983886719</ele>
        <time>2020-10-16T07:42:45.202Z</time>
      </trkpt>
      <trkpt lat="44.72767" lon="3.8237">
        <ele>944.40905761719</ele>
        <time>2020-10-16T07:42:46.127Z</time>
      </trkpt>
      <trkpt lat="44.72782" lon="3.82379">
        <ele>944.34729003906</ele>
        <time>2020-10-16T07:42:47.055Z</time>
      </trkpt>
      <trkpt lat="44.72786" lon="3.8239">
        <ele>944.71368408203</ele>
        <time>2020-10-16T07:42:47.985Z</time>
      </trkpt>
      <trkpt lat="44.72796" lon="3.8241">
        <ele>945.29412841797</ele>
        <time>2020-10-16T07:42:48.919Z</time>
      </trkpt>
      <trkpt lat="44.72794" lon="3.82445">
        <ele>946.5947265625</ele>
        <time>2020-10-16T07:42:49.858Z</time>
      </trkpt>
      <trkpt lat="44.72783" lon="3.8246">
        <ele>946.876953125</ele>
        <time>2020-10-16T07:42:50.800Z</time>
      </trkpt>
      <trkpt lat="44.72764" lon="3.82473">
        <ele>947.41430664062</ele>
        <time>2020-10-16T07:42:51.746Z</time>
      </trkpt>
      <trkpt lat="44.72735" lon="3.82498">
        <ele>948.52435302734</ele>
        <time>2020-10-16T07:42:52.699Z</time>
      </trkpt>
      <trkpt lat="44.7272" lon="3.82517">
        <ele>949.20281982422</ele>
        <time>2020-10-16T07:42:53.656Z</time>
      </trkpt>
      <trkpt lat="44.727" lon="3.82533">
        <ele>949.93121337891</ele>
        <time>2020-10-16T07:42:54.617Z</time>
      </trkpt>
      <trkpt lat="44.72685" lon="3.8255">
        <ele>950.63708496094</ele>
        <time>2020-10-16T07:42:55.582Z</time>
      </trkpt>
      <trkpt lat="44.7268" lon="3.82564">
        <ele>950.6015625</ele>
        <time>2020-10-16T07:42:56.550Z</time>
      </trkpt>
      <trkpt lat="44.72664" lon="3.82574">
        <ele>952.14660644531</ele>
        <time>2020-10-16T07:42:57.521Z</time>
      </trkpt>
      <trkpt lat="44.72648" lon="3.82586">
        <ele>954.25067138672</ele>
        <time>2020-10-16T07:42:58.496Z</time>
      </trkpt>
      <trkpt lat="44.72635" lon="3.82601">
        <ele>955.98291015625</ele>
        <time>2020-10-16T07:42:59.474Z</time>
      </trkpt>
      <trkpt lat="44.7262" lon="3.82618">
        <ele>956.986328125</ele>
        <time>2020-10-16T07:43:00.456Z</time>
      </trkpt>
      <trkpt lat="44.72601" lon="3.82636">
        <ele>955.87200927734</ele>
        <time>2020-10-16T07:43:01.443Z</time>
      </trkpt>
      <trkpt lat="44.72589" lon="3.8265">
        <ele>955.01745605469</ele>
        <time>2020-10-16T07:43:02.433Z</time>
      </trkpt>
      <trkpt lat="44.72577" lon="3.8267">
        <ele>954.18566894531</ele>
        <time>2020-10-16T07:43:03.426Z</time>
      </trkpt>
      <trkpt lat="44.72562" lon="3.82685">
        <ele>954.07067871094</ele>
        <time>2020-10-16T07:43:04.423Z</time>
      </trkpt>
      <trkpt lat="44.72539" lon="3.82699">
        <ele>954.146484375</ele>
        <time>2020-10-16T07:43:05.425Z</time>
      </trkpt>
      <trkpt lat="44.72513" lon="3.82713">
        <ele>951.76177978516</ele>
        <time>2020-10-16T07:43:06.433Z</time>
      </trkpt>
      <trkpt lat="44.72488" lon="3.82724">
        <ele>949.75317382812</ele>
        <time>2020-10-16T07:43:07.446Z</time>
      </trkpt>
      <trkpt lat="44.72494" lon="3.82731">
        <ele>949.52746582031</ele>
        <time>2020-10-16T07:43:08.460Z</time>
      </trkpt>
      <trkpt lat="44.72503" lon="3.82734">
        <ele>949.57598876953</ele>
        <time>2020-10-16T07:43:09.476Z</time>
      </trkpt>
      <trkpt lat="44.72518" lon="3.82737">
        <ele>950.02404785156</ele>
        <time>2020-10-16T07:43:10.495Z</time>
      </trkpt>
      <trkpt lat="44.72537" lon="3.82747">
        <ele>950.14660644531</ele>
        <time>2020-10-16T07:43:11.518Z</time>
      </trkpt>
      <trkpt lat="44.72554" lon="3.82753">
        <ele>949.42456054688</ele>
        <time>2020-10-16T07:43:12.545Z</time>
      </trkpt>
      <trkpt lat="44.72567" lon="3.82754">
        <ele>949.19195556641</ele>
        <time>2020-10-16T07:43:13.574Z</time>
      </trkpt>
      <trkpt lat="44.72585" lon="3.82753">
        <ele>949.04833984375</ele>
        <time>2020-10-16T07:43:14.607Z</time>
      </trkpt>
      <trkpt lat="44.72608" lon="3.8275">
        <ele>948.66857910156</ele>
        <time>2020-10-16T07:43:15.645Z</time>
      </trkpt>
      <trkpt lat="44.72634" lon="3.82749">
        <ele>947.94793701172</ele>
        <time>2020-10-16T07:43:16.688Z</time>
      </trkpt>
      <trkpt lat="44.72661" lon="3.82746">
        <ele>947.79144287109</ele>
        <time>2020-10-16T07:43:17.736Z</time>
      </trkpt>
      <trkpt lat="44.72687" lon="3.8274">
        <ele>946.50268554688</ele>
        <time>2020-10-16T07:43:18.789Z</time>
      </trkpt>
      <trkpt lat="44.72717" lon="3.82732">
        <ele>944.55456542969</ele>
        <time>2020-10-16T07:43:19.849Z</time>
      </trkpt>
      <trkpt lat="44.72749" lon="3.8272">
        <ele>944.13854980469</ele>
        <time>2020-10-16T07:43:20.915Z</time>
      </trkpt>
      <trkpt lat="44.72771" lon="3.82715">
        <ele>943.95770263672</ele>
        <time>2020-10-16T07:43:21.986Z</time>
      </trkpt>
      <trkpt lat="44.72789" lon="3.82712">
        <ele>943.86456298828</ele>
        <time>2020-10-16T07:43:23.060Z</time>
      </trkpt>
      <trkpt lat="44.72803" lon="3.82709">
        <ele>943.91339111328</ele>
        <time>2020-10-16T07:43:24.137Z</time>
      </trkpt>
      <trkpt lat="44.72824" lon="3.82704">
        <ele>943.43792724609</ele>
        <time>2020-10-16T07:43:25.218Z</time>
      </trkpt>
      <trkpt lat="44.72838" lon="3.827">
        <ele>943.04345703125</ele>
        <time>2020-10-16T07:43:26.302Z</time>
      </trkpt>
      <trkpt lat="44.72856" lon="3.82697">
        <ele>942.66680908203</ele>
        <time>2020-10-16T07:43:27.390Z</time>
      </trkpt>
      <trkpt lat="44.72872" lon="3.82698">
        <ele>942.57476806641</ele>
        <time>2020-10-16T07:43:28.481Z</time>
      </trkpt>
      <trkpt lat="44.72887" lon="3.82701">
        <ele>942.90747070312</ele>
        <time>2020-10-16T07:43:29.575Z</time>
      </trkpt>
      <trkpt lat="44.72894" lon="3.82702">
        <ele>942.93933105469</ele>
        <time>2020-10-16T07:43:30.671Z</time>
      </trkpt>
      <trkpt lat="44.72907" lon="3.82699">
        <ele>942.73620605469</ele>
        <time>2020-10-16T07:43:31.769Z</time>
      </trkpt>
      <trkpt lat="44.72922" lon="3.82696">
        <ele>942.48699951172</ele>
        <time>2020-10-16T07:43:32.870Z</time>
      </trkpt>
      <trkpt lat="44.72932" lon="3.82695">
        <ele>942.42565917969</ele>
        <time>2020-10-16T07:43:33.973Z</time>
      </trkpt>
      <trkpt lat="44.72951" lon="3.82694">
        <ele>942.37341308594</ele>
        <time>2020-10-16T07:43:35.080Z</time>
      </trkpt>
      <trkpt lat="44.72969" lon="3.82694">
        <ele>942.26153564453</ele>
        <time>2020-10-16T07:43:36.190Z</time>
      </trkpt>
      <trkpt lat="44.72983" lon="3.82697">
        <ele>942.36798095703</ele>
        <time>2020-10-16T07:43:37.303Z</time>
      </trkpt>
      <trkpt lat="44.73" lon="3.82704">
        <ele>942.71667480469</ele>
        <time>2020-10-16T07:43:38.420Z</time>
      </trkpt>
      <trkpt lat="44.73017" lon="3.82716">
        <ele>943.30572509766</ele>
        <time>2020-10-16T07:43:39.541Z</time>
      </trkpt>
      <trkpt lat="44.73032" lon="3.82735">
        <ele>944.21447753906</ele>
        <time>2020-10-16T07:43:40.666Z</time>
      </trkpt>
      <trkpt lat="44.73045" lon="3.82757">
        <ele>944.98596191406</ele>
        <time>2020-10-16T07:43:41.795Z</time>
      </trkpt>
      <trkpt lat="44.73054" lon="3.82769">
        <ele>945.2470703125</ele>
        <time>2020-10-16T07:43:42.926Z</time>
      </trkpt>
      <trkpt lat="44.73062" lon="3.82784">
        <ele>945.10003662109</ele>
        <time>2020-10-16T07:43:44.060Z</time>
      </trkpt>
      <trkpt lat="44.73065" lon="3.82796">
        <ele>945.017578125</ele>
        <time>2020-10-16T07:43:45.196Z</time>
      </trkpt>
      <trkpt lat="44.73068" lon="3.82812">
        <ele>945.08361816406</ele>
        <time>2020-10-16T07:43:46.334Z</time>
      </trkpt>
      <trkpt lat="44.73072" lon="3.82826">
        <ele>945.18518066406</ele>
        <time>2020-10-16T07:43:47.474Z</time>
      </trkpt>
      <trkpt lat="44.73077" lon="3.82846">
        <ele>945.35461425781</ele>
        <time>2020-10-16T07:43:48.617Z</time>
      </trkpt>
      <trkpt lat="44.73079" lon="3.82865">
        <ele>945.34722900391</ele>
        <time>2020-10-16T07:43:49.763Z</time>
      </trkpt>
      <trkpt lat="44.73078" lon="3.82881">
        <ele>945.24133300781</ele>
        <time>2020-10-16T07:43:50.911Z</time>
      </trkpt>
      <trkpt lat="44.73074" lon="3.82905">
        <ele>945.20556640625</ele>
        <time>2020-10-16T07:43:52.063Z</time>
      </trkpt>
      <trkpt lat="44.73065" lon="3.82924">
        <ele>945.5263671875</ele>
        <time>2020-10-16T07:43:53.218Z</time>
      </trkpt>
      <trkpt lat="44.73053" lon="3.82945">
        <ele>946.02966308594</ele>
        <time>2020-10-16T07:43:54.377Z</time>
      </trkpt>
      <trkpt lat="44.73041" lon="3.82957">
        <ele>946.07293701172</ele>
        <time>2020-10-16T07:43:55.539Z</time>
      </trkpt>
      <trkpt lat="44.73024" lon="3.8297">
        <ele>945.83361816406</ele>
        <time>2020-10-16T07:43:56.705Z</time>
      </trkpt>
      <trkpt lat="44.73002" lon="3.82981">
        <ele>945.84942626953</ele>
        <time>2020-10-16T07:43:57.876Z</time>
      </trkpt>
      <trkpt lat="44.72978" lon="3.82986">
        <ele>945.87164306641</ele>
        <time>2020-10-16T07:43:59.051Z</time>
      </trkpt>
      <trkpt lat="44.72959" lon="3.82987">
        <ele>946.05096435547</ele>
        <time>2020-10-16T07:44:00.230Z</time>
      </trkpt>
      <trkpt lat="44.72938" lon="3.82984">
        <ele>946.4853515625</ele>
        <time>2020-10-16T07:44:01.413Z</time>
      </trkpt>
      <trkpt lat="44.72921" lon="3.82979">
        <ele>946.95727539062</ele>
        <time>2020-10-16T07:44:02.600Z</time>
      </trkpt>
      <trkpt lat="44.72911" lon="3.82976">
        <ele>947.31243896484</ele>
        <time>2020-10-16T07:44:03.789Z</time>
      </trkpt>
      <trkpt lat="44.72904" lon="3.82976">
        <ele>947.54797363281</ele>
        <time>2020-10-16T07:44:04.979Z</time>
      </trkpt>
      <trkpt lat="44.72899" lon="3.82984">
        <ele>947.74584960938</ele>
        <time>2020-10-16T07:44:06.171Z</time>
      </trkpt>
      <trkpt lat="44.72898" lon="3.82996">
        <ele>947.69293212891</ele>
        <time>2020-10-16T07:44:07.365Z</time>
      </trkpt>
      <trkpt lat="44.72902" lon="3.83013">
        <ele>947.22381591797</ele>
        <time>2020-10-16T07:44:08.561Z</time>
      </trkpt>
      <trkpt lat="44.72904" lon="3.83029">
        <ele>947.05743408203</ele>
        <time>2020-10-16T07:44:09.760Z</time>
      </trkpt>
      <trkpt lat="44.72903" lon="3.83055">
        <ele>947.42462158203</ele>
        <time>2020-10-16T07:44:10.962Z</time>
      </trkpt>
      <trkpt lat="44.72903" lon="3.83078">
        <ele>946.8759765625</ele>
        <time>2020-10-16T07:44:12.168Z</time>
      </trkpt>
      <trkpt lat="44.72902" lon="3.83095">
        <ele>946.48754882812</ele>
        <time>2020-10-16T07:44:13.376Z</time>
      </trkpt>
      <trkpt lat="44.72899" lon="3.83108">
        <ele>946.24682617188</ele>
        <time>2020-10-16T07:44:14.586Z</time>
      </trkpt>
      <trkpt lat="44.72896" lon="3.83116">
        <ele>946.13702392578</ele>
        <time>2020-10-16T07:44:15.797Z</time>
      </trkpt>
      <trkpt lat="44.72885" lon="3.83132">
        <ele>946.03564453125</ele>
        <time>2020-10-16T07:44:17.011Z</time>
      </trkpt>
      <trkpt lat="44.72874" lon="3.83144">
        <ele>946.00799560547</ele>
        <time>2020-10-16T07:44:18.228Z</time>
      </trkpt>
      <trkpt lat="44.72864" lon="3.83153">
        <ele>946.08074951172</ele>
        <time>2020-10-16T07:44:19.448Z</time>
      </trkpt>
      <trkpt lat="44.72853" lon="3.83166">
        <ele>946.17889404297</ele>
        <time>2020-10-16T07:44:20.670Z</time>
      </trkpt>
      <trkpt lat="44.72836" lon="3.83183">
        <ele>945.69641113281</ele>
        <time>2020-10-16T07:44:21.897Z</time>
      </trkpt>
      <trkpt lat="44.72827" lon="3.83189">
        <ele>945.51641845703</ele>
        <time>2020-10-16T07:44:23.126Z</time>
      </trkpt>
      <trkpt lat="44.72818" lon="3.8319">
        <ele>945.59143066406</ele>
        <time>2020-10-16T07:44:24.356Z</time>
      </trkpt>
      <trkpt lat="44.72815" lon="3.83196">
        <ele>945.49578857422</ele>
        <time>2020-10-16T07:44:25.587Z</time>
      </trkpt>
      <trkpt lat="44.72809" lon="3.83197">
        <ele>945.54949951172</ele>
        <time>2020-10-16T07:44:26.820Z</time>
      </trkpt>
      <trkpt lat="44.72796" lon="3.83195">
        <ele>945.75299072266</ele>
        <time>2020-10-16T07:44:28.055Z</time>
      </trkpt>
      <trkpt lat="44.72773" lon="3.83196">
        <ele>946.16986083984</ele>
        <time>2020-10-16T07:44:29.295Z</time>
      </trkpt>
      <trkpt lat="44.72765" lon="3.83194">
        <ele>946.41339111328</ele>
        <time>2020-10-16T07:44:30.536Z</time>
      </trkpt>
      <trkpt lat="44.72754" lon="3.83191">
        <ele>946.74468994141</ele>
        <time>2020-10-16T07:44:31.780Z</time>
      </trkpt>
      <trkpt lat="44.72745" lon="3.83193">
        <ele>946.91052246094</ele>
        <time>2020-10-16T07:44:33.025Z</time>
      </trkpt>
      <trkpt lat="44.72739" lon="3.83191">
        <ele>947.10943603516</ele>
        <time>2020-10-16T07:44:34.272Z</time>
      </trkpt>
      <trkpt lat="44.72726" lon="3.83183">
        <ele>947.90509033203</ele>
        <time>2020-10-16T07:44:35.521Z</time>
      </trkpt>
      <trkpt lat="44.72716" lon="3.83169">
        <ele>949.13824462891</ele>
        <time>2020-10-16T07:44:36.773Z</time>
      </trkpt>
      <trkpt lat="44.7271" lon="3.8316">
        <ele>949.93280029297</ele>
        <time>2020-10-16T07:44:38.027Z</time>
      </trkpt>
      <trkpt lat="44.72699" lon="3.83157">
        <ele>950.59637451172</ele>
        <time>2020-10-16T07:44:39.283Z</time>
      </trkpt>
      <trkpt lat="44.72685" lon="3.83161">
        <ele>951.15087890625</ele>
        <time>2020-10-16T07:44:40.542Z</time>
      </trkpt>
      <trkpt lat="44.72673" lon="3.83164">
        <ele>951.59594726562</ele>
        <time>2020-10-16T07:44:41.804Z</time>
      </trkpt>
      <trkpt lat="44.72658" lon="3.83171">
        <ele>951.71276855469</ele>
        <time>2020-10-16T07:44:43.069Z</time>
      </trkpt>
      <trkpt lat="44.72649" lon="3.83174">
        <ele>951.84454345703</ele>
        <time>2020-10-16T07:44:44.336Z</time>
      </trkpt>
      <trkpt lat="44.72635" lon="3.83177">
        <ele>952.33728027344</ele>
        <time>2020-10-16T07:44:45.606Z</time>
      </trkpt>
      <trkpt lat="44.72626" lon="3.83181">
        <ele>952.3916015625</ele>
        <time>2020-10-16T07:44:46.877Z</time>
      </trkpt>
      <trkpt lat="44.72619" lon="3.83191">
        <ele>952.03375244141</ele>
        <time>2020-10-16T07:44:48.150Z</time>
      </trkpt>
      <trkpt lat="44.72615" lon="3.83202">
        <ele>952.12481689453</ele>
        <time>2020-10-16T07:44:49.425Z</time>
      </trkpt>
      <trkpt lat="44.72614" lon="3.83211">
        <ele>951.92919921875</ele>
        <time>2020-10-16T07:44:50.701Z</time>
      </trkpt>
      <trkpt lat="44.72617" lon="3.83219">
        <ele>951.50988769531</ele>
        <time>2020-10-16T07:44:51.979Z</time>
      </trkpt>
      <trkpt lat="44.72625" lon="3.83227">
        <ele>950.6376953125</ele>
        <time>2020-10-16T07:44:53.259Z</time>
      </trkpt>
      <trkpt lat="44.72635" lon="3.83238">
        <ele>949.4404296875</ele>
        <time>2020-10-16T07:44:54.541Z</time>
      </trkpt>
      <trkpt lat="44.72642" lon="3.83249">
        <ele>948.44030761719</ele>
        <time>2020-10-16T07:44:55.825Z</time>
      </trkpt>
      <trkpt lat="44.72645" lon="3.83259">
        <ele>947.94097900391</ele>
        <time>2020-10-16T07:44:57.111Z</time>
      </trkpt>
      <trkpt lat="44.72644" lon="3.83269">
        <ele>947.86846923828</ele>
        <time>2020-10-16T07:44:58.398Z</time>
      </trkpt>
      <trkpt lat="44.72637" lon="3.8328">
        <ele>948.37744140625</ele>
        <time>2020-10-16T07:44:59.687Z</time>
      </trkpt>
      <trkpt lat="44.72629" lon="3.83286">
        <ele>948.64477539062</ele>
        <time>2020-10-16T07:45:00.978Z</time>
      </trkpt>
      <trkpt lat="44.72619" lon="3.83292">
        <ele>948.20526123047</ele>
        <time>2020-10-16T07:45:02.272Z</time>
      </trkpt>
      <trkpt lat="44.72605" lon="3.83306">
        <ele>947.52716064453</ele>
        <time>2020-10-16T07:45:03.569Z</time>
      </trkpt>
      <trkpt lat="44.72591" lon="3.83318">
        <ele>946.98675537109</ele>
        <time>2020-10-16T07:45:04.869Z</time>
      </trkpt>
      <trkpt lat="44.72579" lon="3.83328">
        <ele>947.1337890625</ele>
        <time>2020-10-16T07:45:06.172Z</time>
      </trkpt>
      <trkpt lat="44.72571" lon="3.83338">
        <ele>947.23107910156</ele>
        <time>2020-10-16T07:45:07.477Z</time>
      </trkpt>
      <trkpt lat="44.72565" lon="3.83348">
        <ele>947.1572265625</ele>
        <time>2020-10-16T07:45:08.784Z</time>
      </trkpt>
      <trkpt lat="44.72559" lon="3.83362">
        <ele>947.16479492188</ele>
        <time>2020-10-16T07:45:10.093Z</time>
      </trkpt>
      <trkpt lat="44.72552" lon="3.83377">
        <ele>947.42852783203</ele>
        <time>2020-10-16T07:45:11.405Z</time>
      </trkpt>
      <trkpt lat="44.72543" lon="3.83389">
        <ele>947.17730712891</ele>
        <time>2020-10-16T07:45:12.719Z</time>
      </trkpt>
      <trkpt lat="44.72532" lon="3.83395">
        <ele>947.38861083984</ele>
        <time>2020-10-16T07:45:14.036Z</time>
      </trkpt>
      <trkpt lat="44.72523" lon="3.83399">
        <ele>947.79913330078</ele>
        <time>2020-10-16T07:45:15.355Z</time>
      </trkpt>
      <trkpt lat="44.72509" lon="3.83399">
        <ele>948.60595703125</ele>
        <time>2020-10-16T07:45:16.677Z</time>
      </trkpt>
      <trkpt lat="44.72494" lon="3.83397">
        <ele>949.62585449219</ele>
        <time>2020-10-16T07:45:18.002Z</time>
      </trkpt>
      <trkpt lat="44.72486" lon="3.83392">
        <ele>950.4013671875</ele>
        <time>2020-10-16T07:45:19.328Z</time>
      </trkpt>
      <trkpt lat="44.7248" lon="3.83384">
        <ele>951.11383056641</ele>
        <time>2020-10-16T07:45:20.656Z</time>
      </trkpt>
      <trkpt lat="44.72471" lon="3.83378">
        <ele>951.97998046875</ele>
        <time>2020-10-16T07:45:21.986Z</time>
      </trkpt>
      <trkpt lat="44.72458" lon="3.83369">
        <ele>953.22161865234</ele>
        <time>2020-10-16T07:45:23.319Z</time>
      </trkpt>
      <trkpt lat="44.72451" lon="3.83372">
        <ele>953.65130615234</ele>
        <time>2020-10-16T07:45:24.653Z</time>
      </trkpt>
      <trkpt lat="44.72444" lon="3.83379">
        <ele>953.82690429688</ele>
        <time>2020-10-16T07:45:25.989Z</time>
      </trkpt>
      <trkpt lat="44.72444" lon="3.83394">
        <ele>953.30749511719</ele>
        <time>2020-10-16T07:45:27.327Z</time>
      </trkpt>
      <trkpt lat="44.72443" lon="3.83412">
        <ele>952.73718261719</ele>
        <time>2020-10-16T07:45:28.668Z</time>
      </trkpt>
      <trkpt lat="44.72444" lon="3.83434">
        <ele>951.8046875</ele>
        <time>2020-10-16T07:45:30.012Z</time>
      </trkpt>
      <trkpt lat="44.72446" lon="3.83444">
        <ele>951.19635009766</ele>
        <time>2020-10-16T07:45:31.357Z</time>
      </trkpt>
      <trkpt lat="44.72449" lon="3.83457">
        <ele>950.40319824219</ele>
        <time>2020-10-16T07:45:32.704Z</time>
      </trkpt>
      <trkpt lat="44.72453" lon="3.83465">
        <ele>949.77996826172</ele>
        <time>2020-10-16T07:45:34.053Z</time>
      </trkpt>
      <trkpt lat="44.72458" lon="3.83471">
        <ele>949.19128417969</ele>
        <time>2020-10-16T07:45:35.403Z</time>
      </trkpt>
      <trkpt lat="44.72469" lon="3.83482">
        <ele>948.07110595703</ele>
        <time>2020-10-16T07:45:36.755Z</time>
      </trkpt>
      <trkpt lat="44.72475" lon="3.8349">
        <ele>947.29864501953</ele>
        <time>2020-10-16T07:45:38.109Z</time>
      </trkpt>
      <trkpt lat="44.72476" lon="3.83503">
        <ele>946.59857177734</ele>
        <time>2020-10-16T07:45:39.465Z</time>
      </trkpt>
      <trkpt lat="44.72478" lon="3.83519">
        <ele>945.72680664062</ele>
        <time>2020-10-16T07:45:40.823Z</time>
      </trkpt>
      <trkpt lat="44.72481" lon="3.83536">
        <ele>945.35021972656</ele>
        <time>2020-10-16T07:45:42.184Z</time>
      </trkpt>
      <trkpt lat="44.72486" lon="3.83555">
        <ele>945.080078125</ele>
        <time>2020-10-16T07:45:43.548Z</time>
      </trkpt>
      <trkpt lat="44.72488" lon="3.83566">
        <ele>944.84619140625</ele>
        <time>2020-10-16T07:45:44.913Z</time>
      </trkpt>
      <trkpt lat="44.72486" lon="3.83575">
        <ele>944.81939697266</ele>
        <time>2020-10-16T07:45:46.280Z</time>
      </trkpt>
      <trkpt lat="44.72482" lon="3.83582">
        <ele>944.91674804688</ele>
        <time>2020-10-16T07:45:47.648Z</time>
      </trkpt>
      <trkpt lat="44.72475" lon="3.83589">
        <ele>945.17236328125</ele>
        <time>2020-10-16T07:45:49.018Z</time>
      </trkpt>
      <trkpt lat="44.72465" lon="3.83596">
        <ele>945.58178710938</ele>
        <time>2020-10-16T07:45:50.390Z</time>
      </trkpt>
      <trkpt lat="44.72449" lon="3.83605">
        <ele>946.24652099609</ele>
        <time>2020-10-16T07:45:51.765Z</time>
      </trkpt>
      <trkpt lat="44.72435" lon="3.83614">
        <ele>946.92395019531</ele>
        <time>2020-10-16T07:45:53.144Z</time>
      </trkpt>
      <trkpt lat="44.72424" lon="3.8362">
        <ele>947.45153808594</ele>
        <time>2020-10-16T07:45:54.525Z</time>
      </trkpt>
      <trkpt lat="44.72411" lon="3.83626">
        <ele>948.05035400391</ele>
        <time>2020-10-16T07:45:55.909Z</time>
      </trkpt>
      <trkpt lat="44.72397" lon="3.83631">
        <ele>948.71087646484</ele>
        <time>2020-10-16T07:45:57.295Z</time>
      </trkpt>
      <trkpt lat="44.7238" lon="3.83636">
        <ele>949.03845214844</ele>
        <time>2020-10-16T07:45:58.685Z</time>
      </trkpt>
      <trkpt lat="44.72362" lon="3.8364">
        <ele>949.08990478516</ele>
        <time>2020-10-16T07:46:00.078Z</time>
      </trkpt>
      <trkpt lat="44.72349" lon="3.83645">
        <ele>948.79016113281</ele>
        <time>2020-10-16T07:46:01.474Z</time>
      </trkpt>
      <trkpt lat="44.72338" lon="3.83653">
        <ele>948.47222900391</ele>
        <time>2020-10-16T07:46:02.873Z</time>
      </trkpt>
      <trkpt lat="44.72331" lon="3.83656">
        <ele>948.73980712891</ele>
        <time>2020-10-16T07:46:04.273Z</time>
      </trkpt>
      <trkpt lat="44.72326" lon="3.83651">
        <ele>948.76788330078</ele>
        <time>2020-10-16T07:46:05.674Z</time>
      </trkpt>
      <trkpt lat="44.72325" lon="3.83644">
        <ele>948.54962158203</ele>
        <time>2020-10-16T07:46:07.077Z</time>
      </trkpt>
      <trkpt lat="44.72323" lon="3.83632">
        <ele>948.80773925781</ele>
        <time>2020-10-16T07:46:08.481Z</time>
      </trkpt>
      <trkpt lat="44.72316" lon="3.83628">
        <ele>948.82244873047</ele>
        <time>2020-10-16T07:46:09.887Z</time>
      </trkpt>
      <trkpt lat="44.72319" lon="3.8364">
        <ele>948.70843505859</ele>
        <time>2020-10-16T07:46:11.295Z</time>
      </trkpt>
      <trkpt lat="44.72321" lon="3.83652">
        <ele>949.05133056641</ele>
        <time>2020-10-16T07:46:12.704Z</time>
      </trkpt>
      <trkpt lat="44.72323" lon="3.83664">
        <ele>949.40289306641</ele>
        <time>2020-10-16T07:46:14.115Z</time>
      </trkpt>
      <trkpt lat="44.72324" lon="3.83677">
        <ele>949.77087402344</ele>
        <time>2020-10-16T07:46:15.528Z</time>
      </trkpt>
      <trkpt lat="44.72326" lon="3.83689">
        <ele>950.14331054688</ele>
        <time>2020-10-16T07:46:16.943Z</time>
      </trkpt>
      <trkpt lat="44.72327" lon="3.83701">
        <ele>950.52545166016</ele>
        <time>2020-10-16T07:46:18.360Z</time>
      </trkpt>
      <trkpt lat="44.72328" lon="3.83713">
        <ele>950.90570068359</ele>
        <time>2020-10-16T07:46:19.778Z</time>
      </trkpt>
      <trkpt lat="44.7233" lon="3.83725">
        <ele>951.25848388672</ele>
        <time>2020-10-16T07:46:21.198Z</time>
      </trkpt>
      <trkpt lat="44.72331" lon="3.83737">
        <ele>951.63415527344</ele>
        <time>2020-10-16T07:46:22.620Z</time>
      </trkpt>
      <trkpt lat="44.72333" lon="3.83748">
        <ele>952.06640625</ele>
        <time>2020-10-16T07:46:24.043Z</time>
      </trkpt>
      <trkpt lat="44.72336" lon="3.83759">
        <ele>952.46105957031</ele>
        <time>2020-10-16T07:46:25.468Z</time>
      </trkpt>
      <trkpt lat="44.72338" lon="3.8377">
        <ele>952.82360839844</ele>
        <time>2020-10-16T07:46:26.895Z</time>
      </trkpt>
      <trkpt lat="44.72342" lon="3.83781">
        <ele>953.24493408203</ele>
        <time>2020-10-16T07:46:28.323Z</time>
      </trkpt>
      <trkpt lat="44.72346" lon="3.83791">
        <ele>953.62902832031</ele>
        <time>2020-10-16T07:46:29.753Z</time>
      </trkpt>
      <trkpt lat="44.7235" lon="3.83801">
        <ele>953.97271728516</ele>
        <time>2020-10-16T07:46:31.185Z</time>
      </trkpt>
      <trkpt lat="44.72354" lon="3.83811">
        <ele>954.29693603516</ele>
        <time>2020-10-16T07:46:32.618Z</time>
      </trkpt>
      <trkpt lat="44.72363" lon="3.8383">
        <ele>954.87957763672</ele>
        <time>2020-10-16T07:46:34.055Z</time>
      </trkpt>
      <trkpt lat="44.72368" lon="3.83839">
        <ele>955.15869140625</ele>
        <time>2020-10-16T07:46:35.493Z</time>
      </trkpt>
      <trkpt lat="44.72377" lon="3.83857">
        <ele>955.98236083984</ele>
        <time>2020-10-16T07:46:36.934Z</time>
      </trkpt>
      <trkpt lat="44.72385" lon="3.83872">
        <ele>956.96954345703</ele>
        <time>2020-10-16T07:46:38.378Z</time>
      </trkpt>
      <trkpt lat="44.72391" lon="3.83883">
        <ele>957.57824707031</ele>
        <time>2020-10-16T07:46:39.824Z</time>
      </trkpt>
      <trkpt lat="44.724" lon="3.839">
        <ele>958.5</ele>
        <time>2020-10-16T07:46:41.273Z</time>
      </trkpt>
      <trkpt lat="44.72404" lon="3.83909">
        <ele>958.95385742188</ele>
        <time>2020-10-16T07:46:42.723Z</time>
      </trkpt>
      <trkpt lat="44.72409" lon="3.83917">
        <ele>959.39508056641</ele>
        <time>2020-10-16T07:46:44.175Z</time>
      </trkpt>
      <trkpt lat="44.72412" lon="3.83925">
        <ele>959.83514404297</ele>
        <time>2020-10-16T07:46:45.628Z</time>
      </trkpt>
      <trkpt lat="44.72416" lon="3.83933">
        <ele>960.28106689453</ele>
        <time>2020-10-16T07:46:47.083Z</time>
      </trkpt>
      <trkpt lat="44.7242" lon="3.83942">
        <ele>960.66326904297</ele>
        <time>2020-10-16T07:46:48.539Z</time>
      </trkpt>
      <trkpt lat="44.72423" lon="3.8395">
        <ele>960.90307617188</ele>
        <time>2020-10-16T07:46:49.996Z</time>
      </trkpt>
      <trkpt lat="44.72429" lon="3.83966">
        <ele>961.3525390625</ele>
        <time>2020-10-16T07:46:51.456Z</time>
      </trkpt>
      <trkpt lat="44.72437" lon="3.83986">
        <ele>961.91528320312</ele>
        <time>2020-10-16T07:46:52.919Z</time>
      </trkpt>
      <trkpt lat="44.7244" lon="3.83993">
        <ele>962.12744140625</ele>
        <time>2020-10-16T07:46:54.383Z</time>
      </trkpt>
      <trkpt lat="44.72442" lon="3.83998">
        <ele>962.26391601562</ele>
        <time>2020-10-16T07:46:55.848Z</time>
      </trkpt>
      <trkpt lat="44.72441" lon="3.83999">
        <ele>962.27014160156</ele>
        <time>2020-10-16T07:46:57.313Z</time>
      </trkpt>
      <trkpt lat="44.72444" lon="3.84009">
        <ele>962.55505371094</ele>
        <time>2020-10-16T07:46:58.780Z</time>
      </trkpt>
      <trkpt lat="44.72475" lon="3.83954">
        <ele>962.38598632812</ele>
        <time>2020-10-16T07:47:00.257Z</time>
      </trkpt>
      <trkpt lat="44.72495" lon="3.83919">
        <ele>961.23583984375</ele>
        <time>2020-10-16T07:47:01.740Z</time>
      </trkpt>
      <trkpt lat="44.72495" lon="3.83919">
        <ele>961.23541259766</ele>
        <time>2020-10-16T07:47:03.223Z</time>
      </trkpt>
      <trkpt lat="44.72614" lon="3.83786">
        <ele>956.68804931641</ele>
        <time>2020-10-16T07:47:04.737Z</time>
      </trkpt>
      <trkpt lat="44.72681" lon="3.83744">
        <ele>958.40368652344</ele>
        <time>2020-10-16T07:47:06.266Z</time>
      </trkpt>
      <trkpt lat="44.73239" lon="3.83603">
        <ele>951.88500976562</ele>
        <time>2020-10-16T07:47:07.908Z</time>
      </trkpt>
      <trkpt lat="44.73262" lon="3.83598">
        <ele>950.76513671875</ele>
        <time>2020-10-16T07:47:09.555Z</time>
      </trkpt>
      <trkpt lat="44.73422" lon="3.83537">
        <ele>947.42388916016</ele>
        <time>2020-10-16T07:47:11.235Z</time>
      </trkpt>
      <trkpt lat="44.73489" lon="3.8351">
        <ele>945.82879638672</ele>
        <time>2020-10-16T07:47:12.929Z</time>
      </trkpt>
      <trkpt lat="44.73544" lon="3.83477">
        <ele>943.64471435547</ele>
        <time>2020-10-16T07:47:14.635Z</time>
      </trkpt>
      <trkpt lat="44.73557" lon="3.83476">
        <ele>944.42358398438</ele>
        <time>2020-10-16T07:47:16.343Z</time>
      </trkpt>
    </trkseg>
  </trk>
</gpx>